createdAt,value
2022-11-26T00:01:55.776Z,47.80
2022-11-26T00:04:25.545Z,47.80
2022-11-26T00:06:55.381Z,47.80
2022-11-26T00:09:27.798Z,48.50
2022-11-26T00:11:57.584Z,49.00
2022-11-26T00:14:27.403Z,49.10
2022-11-26T00:16:57.164Z,49.80
2022-11-26T00:19:27.011Z,50.10
2022-11-26T00:21:56.800Z,50.40
2022-11-26T00:24:31.883Z,50.70
2022-11-26T00:27:02.971Z,51.50
2022-11-26T00:29:32.745Z,51.50
2022-11-26T00:32:02.580Z,51.60
2022-11-26T00:34:32.396Z,51.60
2022-11-26T00:37:02.317Z,51.60
2022-11-26T00:39:34.784Z,51.60
2022-11-26T00:42:04.588Z,51.60
2022-11-26T00:44:35.092Z,51.70
2022-11-26T00:47:05.280Z,51.70
2022-11-26T00:49:35.127Z,51.60
2022-11-26T00:52:05.294Z,51.70
2022-11-26T00:54:37.892Z,51.60
2022-11-26T00:57:07.880Z,51.80
2022-11-26T00:59:37.684Z,51.60
2022-11-26T01:02:07.562Z,51.60
2022-11-26T01:04:37.733Z,51.60
2022-11-26T01:07:07.672Z,52.10
2022-11-26T01:09:41.356Z,51.30
2022-11-26T01:12:16.380Z,50.80
2022-11-26T01:14:46.193Z,50.60
2022-11-26T01:17:15.984Z,50.10
2022-11-26T01:19:45.759Z,49.80
2022-11-26T01:22:23.513Z,49.50
2022-11-26T01:24:55.916Z,49.10
2022-11-26T01:27:25.729Z,49.00
2022-11-26T01:29:55.472Z,48.90
2022-11-26T01:32:29.290Z,49.10
2022-11-26T01:34:59.437Z,48.90
2022-11-26T01:37:29.234Z,48.50
2022-11-26T01:40:01.588Z,48.40
2022-11-26T01:42:45.105Z,48.10
2022-11-26T01:45:18.580Z,47.90
2022-11-26T01:47:49.127Z,48.10
2022-11-26T01:50:56.104Z,47.90
2022-11-26T01:53:41.218Z,47.80
2022-11-26T01:56:22.412Z,47.70
2022-11-26T01:58:56.750Z,48.00
2022-11-26T02:01:26.959Z,48.60
2022-11-26T02:04:05.194Z,49.10
2022-11-26T02:06:36.800Z,48.90
2022-11-26T02:09:09.088Z,49.30
2022-11-26T02:11:41.852Z,49.60
2022-11-26T02:14:16.845Z,49.70
2022-11-26T02:17:13.465Z,50.00
2022-11-26T02:20:27.601Z,50.50
2022-11-26T02:23:33.872Z,50.40
2022-11-26T02:26:35.857Z,49.90
2022-11-26T02:29:14.712Z,50.00
2022-11-26T02:31:51.420Z,50.70
2022-11-26T02:34:30.588Z,50.70
2022-11-26T02:37:08.623Z,51.50
2022-11-26T02:39:38.480Z,51.60
2022-11-26T02:42:25.940Z,51.60
2022-11-26T02:44:57.600Z,52.10
2022-11-26T02:47:31.536Z,51.70
2022-11-26T02:50:04.992Z,52.30
2022-11-26T02:52:36.076Z,51.70
2022-11-26T02:55:08.553Z,51.70
2022-11-26T02:57:45.535Z,52.30
2022-11-26T03:00:16.519Z,52.50
2022-11-26T03:02:52.733Z,52.80
2022-11-26T03:05:23.357Z,52.90
2022-11-26T03:07:55.707Z,53.10
2022-11-26T03:10:29.582Z,53.20
2022-11-26T03:12:59.646Z,53.30
2022-11-26T03:15:29.840Z,53.50
2022-11-26T03:18:02.277Z,53.60
2022-11-26T03:20:32.177Z,53.60
2022-11-26T03:23:01.959Z,53.70
2022-11-26T03:25:31.808Z,53.70
2022-11-26T03:28:01.618Z,53.40
2022-11-26T03:30:31.447Z,53.30
2022-11-26T03:33:03.847Z,53.10
2022-11-26T03:35:33.636Z,52.70
2022-11-26T03:38:03.435Z,52.20
2022-11-26T03:40:33.253Z,51.80
2022-11-26T03:43:03.064Z,51.70
2022-11-26T03:45:32.926Z,51.70
2022-11-26T03:48:05.484Z,51.70
2022-11-26T03:50:35.310Z,51.60
2022-11-26T03:53:05.337Z,51.60
2022-11-26T03:55:35.092Z,50.70
2022-11-26T03:58:04.928Z,50.70
2022-11-26T04:00:34.679Z,50.40
2022-11-26T04:03:07.227Z,50.20
2022-11-26T04:05:37.120Z,50.70
2022-11-26T04:08:07.097Z,50.60
2022-11-26T04:10:36.919Z,50.50
2022-11-26T04:13:06.740Z,50.50
2022-11-26T04:15:37.208Z,50.70
2022-11-26T04:18:09.748Z,51.20
2022-11-26T04:20:39.517Z,51.20
2022-11-26T04:23:09.389Z,51.50
2022-11-26T04:25:39.320Z,51.60
2022-11-26T04:28:09.548Z,51.60
2022-11-26T04:30:39.292Z,51.60
2022-11-26T04:33:11.781Z,52.00
2022-11-26T04:35:42.049Z,52.10
2022-11-26T04:38:12.012Z,51.80
2022-11-26T04:40:42.058Z,52.20
2022-11-26T04:43:11.868Z,52.50
2022-11-26T04:45:41.666Z,52.60
2022-11-26T04:48:14.168Z,52.90
2022-11-26T04:50:43.990Z,53.20
2022-11-26T04:53:14.008Z,53.50
2022-11-26T04:55:43.832Z,54.10
2022-11-26T04:58:13.631Z,54.20
2022-11-26T05:00:43.525Z,54.10
2022-11-26T05:03:16.357Z,55.70
2022-11-26T05:05:46.723Z,55.40
2022-11-26T05:08:16.598Z,55.50
2022-11-26T05:10:46.480Z,56.30
2022-11-26T05:13:16.323Z,55.90
2022-11-26T05:15:46.088Z,56.30
2022-11-26T05:18:18.747Z,56.20
2022-11-26T05:20:48.548Z,56.10
2022-11-26T05:23:18.328Z,55.80
2022-11-26T05:25:48.164Z,55.90
2022-11-26T05:28:17.973Z,55.80
2022-11-26T05:30:47.860Z,55.70
2022-11-26T05:33:20.201Z,55.90
2022-11-26T05:35:50.019Z,56.20
2022-11-26T05:38:19.954Z,57.10
2022-11-26T05:40:49.796Z,57.10
2022-11-26T05:43:19.651Z,57.30
2022-11-26T05:45:49.496Z,57.50
2022-11-26T05:48:22.057Z,58.00
2022-11-26T05:50:54.538Z,58.10
2022-11-26T05:53:24.573Z,58.40
2022-11-26T05:55:54.566Z,60.10
2022-11-26T05:58:24.470Z,59.60
2022-11-26T06:00:54.300Z,60.20
2022-11-26T06:03:27.030Z,60.10
2022-11-26T06:05:57.020Z,60.20
2022-11-26T06:08:26.781Z,60.40
2022-11-26T06:10:56.564Z,61.20
2022-11-26T06:13:26.700Z,61.30
2022-11-26T06:15:56.441Z,61.30
2022-11-26T06:18:28.848Z,61.40
2022-11-26T06:21:02.843Z,61.20
2022-11-26T06:23:32.702Z,61.20
2022-11-26T06:26:02.669Z,61.40
2022-11-26T06:28:32.471Z,61.80
2022-11-26T06:31:02.248Z,61.80
2022-11-26T06:33:35.008Z,61.90
2022-11-26T06:36:06.920Z,62.00
2022-11-26T06:38:36.785Z,61.90
2022-11-26T06:41:08.672Z,61.90
2022-11-26T06:43:39.139Z,62.00
2022-11-26T06:46:10.775Z,62.30
2022-11-26T06:48:43.597Z,62.40
2022-11-26T06:51:15.386Z,62.50
2022-11-26T06:53:45.573Z,62.50
2022-11-26T06:56:19.017Z,62.60
2022-11-26T06:58:49.472Z,62.70
2022-11-26T07:01:23.714Z,62.70
2022-11-26T07:03:56.614Z,62.90
2022-11-26T07:06:28.632Z,62.90
2022-11-26T07:09:00.991Z,63.00
2022-11-26T07:11:31.159Z,63.40
2022-11-26T07:14:01.540Z,63.60
2022-11-26T07:16:32.349Z,63.60
2022-11-26T07:19:05.366Z,63.90
2022-11-26T07:21:35.169Z,63.90
2022-11-26T07:24:04.992Z,63.90
2022-11-26T07:26:34.984Z,64.00
2022-11-26T07:29:04.788Z,64.30
2022-11-26T07:31:36.085Z,64.40
2022-11-26T07:34:08.544Z,64.60
2022-11-26T07:36:42.941Z,64.80
2022-11-26T07:39:14.150Z,64.90
2022-11-26T07:41:43.959Z,65.00
2022-11-26T07:44:15.816Z,65.10
2022-11-26T07:46:45.585Z,65.30
2022-11-26T07:49:17.968Z,65.40
2022-11-26T07:51:47.752Z,65.40
2022-11-26T07:54:17.669Z,65.50
2022-11-26T07:56:47.447Z,65.60
2022-11-26T07:59:17.300Z,65.50
2022-11-26T08:01:47.272Z,65.50
2022-11-26T08:04:19.763Z,65.20
2022-11-26T08:06:49.621Z,64.50
2022-11-26T08:09:19.573Z,64.40
2022-11-26T08:11:49.438Z,64.70
2022-11-26T08:14:19.286Z,64.40
2022-11-26T08:16:49.165Z,64.10
2022-11-26T08:19:21.696Z,63.50
2022-11-26T08:21:51.492Z,63.20
2022-11-26T08:24:23.808Z,63.10
2022-11-26T08:26:53.857Z,63.20
2022-11-26T08:29:23.716Z,61.10
2022-11-26T08:31:53.652Z,59.90
2022-11-26T08:34:26.235Z,59.20
2022-11-26T08:36:57.834Z,59.40
2022-11-26T08:39:27.747Z,59.20
2022-11-26T08:41:57.608Z,58.40
2022-11-26T08:44:27.440Z,56.20
2022-11-26T08:47:00.441Z,56.50
2022-11-26T08:49:32.880Z,54.40
2022-11-26T08:52:02.885Z,53.40
2022-11-26T08:54:33.444Z,51.60
2022-11-26T08:57:03.210Z,51.60
2022-11-26T08:59:32.951Z,49.80
2022-11-26T09:02:02.784Z,48.80
2022-11-26T09:04:35.360Z,47.40
2022-11-26T09:07:05.189Z,45.50
2022-11-26T09:09:34.957Z,44.20
2022-11-26T09:12:04.965Z,43.90
2022-11-26T09:14:39.805Z,42.70
2022-11-26T09:17:10.716Z,41.70
2022-11-26T09:19:43.632Z,41.10
2022-11-26T09:22:13.547Z,39.90
2022-11-26T09:24:43.443Z,38.70
2022-11-26T09:27:13.731Z,38.10
2022-11-26T09:29:43.515Z,37.70
2022-11-26T09:32:24.327Z,37.20
2022-11-26T09:34:58.424Z,36.70
2022-11-26T09:37:28.216Z,37.20
2022-11-26T09:39:58.068Z,35.90
2022-11-26T09:42:37.704Z,35.30
2022-11-26T09:45:15.179Z,32.40
2022-11-26T09:47:48.204Z,35.00
2022-11-26T09:50:31.729Z,33.50
2022-11-26T09:53:05.148Z,32.30
2022-11-26T09:55:38.825Z,31.10
2022-11-26T09:58:15.070Z,31.00
2022-11-26T10:00:47.667Z,29.50
2022-11-26T10:03:21.391Z,29.70
2022-11-26T10:06:00.552Z,28.30
2022-11-26T10:09:14.009Z,25.90
2022-11-26T10:11:51.540Z,26.50
2022-11-26T10:14:35.251Z,26.90
2022-11-26T10:17:18.784Z,25.00
2022-11-26T10:19:57.488Z,24.10
2022-11-26T10:22:34.175Z,23.70
2022-11-26T10:25:06.048Z,23.10
2022-11-26T10:27:37.589Z,21.30
2022-11-26T10:30:19.334Z,20.30
2022-11-26T10:32:51.231Z,20.80
2022-11-26T10:35:22.828Z,21.10
2022-11-26T10:37:57.149Z,18.00
2022-11-26T10:40:29.388Z,16.40
2022-11-26T10:43:08.772Z,14.80
2022-11-26T10:45:41.248Z,16.00
2022-11-26T10:48:21.939Z,12.90
2022-11-26T10:51:00.932Z,12.80
2022-11-26T10:53:49.000Z,14.90
2022-11-26T10:56:22.364Z,13.10
2022-11-26T10:58:54.500Z,13.20
2022-11-26T11:01:24.420Z,12.20
2022-11-26T11:04:12.802Z,13.10
2022-11-26T11:06:44.952Z,9.80
2022-11-26T11:09:32.990Z,8.90
2022-11-26T11:12:21.975Z,10.10
2022-11-26T11:14:53.240Z,11.60
2022-11-26T11:17:32.014Z,9.70
2022-11-26T11:20:04.879Z,10.40
2022-11-26T11:22:34.855Z,11.40
2022-11-26T11:25:07.863Z,11.90
2022-11-26T11:27:43.883Z,12.30
2022-11-26T11:30:27.707Z,12.20
2022-11-26T11:32:58.751Z,10.70
2022-11-26T11:35:31.532Z,11.40
2022-11-26T11:38:01.674Z,11.40
2022-11-26T11:40:43.268Z,12.30
2022-11-26T11:43:19.818Z,12.30
2022-11-26T11:45:59.095Z,12.40
2022-11-26T11:48:43.434Z,12.90
2022-11-26T11:51:22.553Z,12.80
2022-11-26T11:54:03.956Z,14.10
2022-11-26T11:56:43.380Z,12.20
2022-11-26T11:59:37.581Z,11.80
2022-11-26T12:02:32.087Z,9.50
2022-11-26T12:05:09.702Z,11.00
2022-11-26T12:07:42.303Z,11.10
2022-11-26T12:10:16.427Z,11.90
2022-11-26T12:12:52.414Z,11.70
2022-11-26T12:15:28.306Z,12.90
2022-11-26T12:18:03.279Z,14.50
2022-11-26T12:20:37.361Z,15.10
2022-11-26T12:23:24.840Z,15.00
2022-11-26T12:25:59.616Z,15.10
2022-11-26T12:28:34.623Z,15.00
2022-11-26T12:31:08.381Z,15.00
2022-11-26T12:33:43.588Z,15.00
2022-11-26T12:36:21.948Z,15.80
2022-11-26T12:38:55.866Z,16.00
2022-11-26T12:41:30.109Z,16.40
2022-11-26T12:44:07.932Z,16.60
2022-11-26T12:46:42.545Z,17.00
2022-11-26T12:49:16.400Z,16.20
2022-11-26T12:51:52.615Z,17.50
2022-11-26T12:54:26.398Z,18.00
2022-11-26T12:57:01.260Z,18.00
2022-11-26T12:59:38.361Z,16.60
2022-11-26T13:02:22.712Z,15.10
2022-11-26T13:04:53.952Z,15.70
2022-11-26T13:07:50.243Z,15.00
2022-11-26T13:10:30.817Z,15.10
2022-11-26T13:13:13.644Z,14.20
2022-11-26T13:15:51.648Z,9.40
2022-11-26T13:18:26.849Z,9.70
2022-11-26T13:21:18.917Z,8.00
2022-11-26T13:24:24.308Z,9.60
2022-11-26T13:27:12.376Z,9.70
2022-11-26T13:30:07.345Z,10.00
2022-11-26T13:33:24.907Z,9.30
2022-11-26T13:36:22.695Z,9.40
2022-11-26T13:39:06.983Z,9.50
2022-11-26T13:41:54.705Z,9.50
2022-11-26T13:44:49.405Z,8.80
2022-11-26T13:47:23.499Z,8.80
2022-11-26T13:49:57.800Z,8.40
2022-11-26T13:52:34.345Z,8.50
2022-11-26T13:55:09.200Z,7.80
2022-11-26T13:57:44.039Z,7.90
2022-11-26T14:00:26.024Z,7.90
2022-11-26T14:02:55.836Z,7.80
2022-11-26T14:05:25.996Z,8.00
2022-11-26T14:08:33.443Z,9.50
2022-11-26T14:11:03.609Z,10.20
2022-11-26T14:13:33.464Z,11.30
2022-11-26T14:16:05.363Z,13.80
2022-11-26T14:19:00.866Z,15.50
2022-11-26T14:21:32.111Z,16.90
2022-11-26T14:24:05.044Z,17.60
2022-11-26T14:26:37.892Z,18.60
2022-11-26T14:29:17.505Z,19.10
2022-11-26T14:31:52.834Z,19.80
2022-11-26T14:34:29.348Z,20.70
2022-11-26T14:37:01.561Z,21.60
2022-11-26T14:39:34.301Z,21.60
2022-11-26T14:42:06.363Z,22.80
2022-11-26T14:44:37.094Z,24.10
2022-11-26T14:47:13.936Z,25.10
2022-11-26T14:49:46.512Z,25.90
2022-11-26T14:52:20.871Z,26.20
2022-11-26T14:54:56.252Z,26.70
2022-11-26T14:57:31.678Z,27.20
2022-11-26T15:00:03.970Z,27.70
2022-11-26T15:02:35.046Z,28.00
2022-11-26T15:05:07.163Z,28.00
2022-11-26T15:07:36.979Z,28.10
2022-11-26T15:10:20.060Z,29.70
2022-11-26T15:12:53.575Z,29.60
2022-11-26T15:15:25.690Z,31.50
2022-11-26T15:17:58.606Z,32.50
2022-11-26T15:20:28.815Z,33.20
2022-11-26T15:23:00.939Z,34.20
2022-11-26T15:25:37.459Z,35.40
2022-11-26T15:28:08.378Z,36.20
2022-11-26T15:30:39.895Z,37.30
2022-11-26T15:33:16.812Z,38.30
2022-11-26T15:35:46.639Z,39.50
2022-11-26T15:38:18.682Z,39.50
2022-11-26T15:40:54.516Z,40.20
2022-11-26T15:43:29.756Z,41.20
2022-11-26T15:46:02.497Z,42.60
2022-11-26T15:48:54.164Z,42.90
2022-11-26T15:51:34.919Z,43.50
2022-11-26T15:54:06.266Z,43.80
2022-11-26T15:56:41.544Z,44.40
2022-11-26T15:59:19.656Z,44.90
2022-11-26T16:01:50.302Z,45.20
2022-11-26T16:04:41.815Z,45.40
2022-11-26T16:07:13.960Z,45.40
2022-11-26T16:09:44.203Z,45.80
2022-11-26T16:12:33.288Z,45.80
2022-11-26T16:15:15.800Z,47.00
2022-11-26T16:17:46.076Z,47.20
2022-11-26T16:20:21.721Z,46.90
2022-11-26T16:22:53.814Z,47.00
2022-11-26T16:25:26.747Z,47.00
2022-11-26T16:28:17.703Z,47.70
2022-11-26T16:30:48.221Z,47.70
2022-11-26T16:33:18.069Z,48.30
2022-11-26T16:35:49.516Z,49.00
2022-11-26T16:38:22.859Z,49.40
2022-11-26T16:40:53.194Z,49.80
2022-11-26T16:43:25.688Z,49.90
2022-11-26T16:45:57.952Z,50.80
2022-11-26T16:48:29.329Z,51.00
2022-11-26T16:50:59.542Z,50.80
2022-11-26T16:53:29.369Z,50.90
2022-11-26T16:56:00.488Z,50.80
2022-11-26T16:58:34.912Z,51.20
2022-11-26T17:01:05.312Z,52.20
2022-11-26T17:03:35.419Z,52.10
2022-11-26T17:06:13.589Z,52.10
2022-11-26T17:08:49.536Z,52.30
2022-11-26T17:11:20.927Z,52.60
2022-11-26T17:13:53.534Z,53.30
2022-11-26T17:16:26.232Z,53.30
2022-11-26T17:18:56.300Z,53.60
2022-11-26T17:21:26.101Z,53.70
2022-11-26T17:23:55.956Z,53.70
2022-11-26T17:26:26.699Z,53.60
2022-11-26T17:28:59.054Z,53.70
2022-11-26T17:31:29.843Z,53.50
2022-11-26T17:33:59.845Z,53.40
2022-11-26T17:36:33.824Z,53.30
2022-11-26T17:39:06.885Z,52.80
2022-11-26T17:41:37.242Z,52.60
2022-11-26T17:44:09.712Z,52.70
2022-11-26T17:47:01.058Z,52.30
2022-11-26T17:49:29.243Z,52.30
2022-11-26T17:51:59.045Z,52.00
2022-11-26T17:54:28.962Z,51.90
2022-11-26T17:56:58.765Z,52.00
2022-11-26T17:59:31.468Z,52.30
2022-11-26T18:02:02.523Z,52.70
2022-11-26T18:04:32.601Z,53.10
2022-11-26T18:07:08.350Z,52.50
2022-11-26T18:09:38.618Z,53.20
2022-11-26T18:12:11.837Z,52.70
2022-11-26T18:14:46.193Z,52.90
2022-11-26T18:17:16.261Z,53.10
2022-11-26T18:19:46.271Z,53.30
2022-11-26T18:22:18.612Z,53.90
2022-11-26T18:24:56.430Z,54.30
2022-11-26T18:27:31.097Z,54.30
2022-11-26T18:30:03.508Z,54.50
2022-11-26T18:32:33.417Z,54.60
2022-11-26T18:35:03.994Z,54.70
2022-11-26T18:37:33.871Z,54.90
2022-11-26T18:40:03.698Z,54.90
2022-11-26T18:42:37.939Z,54.80
2022-11-26T18:45:13.627Z,54.90
2022-11-26T18:47:43.524Z,55.00
2022-11-26T18:50:14.078Z,55.00
2022-11-26T18:52:43.926Z,55.20
2022-11-26T18:55:16.231Z,55.10
2022-11-26T18:57:46.069Z,55.00
2022-11-26T19:00:19.512Z,54.90
2022-11-26T19:02:49.532Z,54.80
2022-11-26T19:05:19.569Z,54.90
2022-11-26T19:07:49.476Z,55.20
2022-11-26T19:10:19.509Z,55.50
2022-11-26T19:12:51.008Z,55.10
2022-11-26T19:15:23.449Z,54.60
2022-11-26T19:17:53.351Z,54.40
2022-11-26T19:20:23.165Z,54.30
2022-11-26T19:22:53.020Z,53.80
2022-11-26T19:25:22.771Z,53.20
2022-11-26T19:27:52.861Z,52.90
2022-11-26T19:30:25.596Z,52.60
2022-11-26T19:32:55.461Z,52.00
2022-11-26T19:35:26.144Z,52.40
2022-11-26T19:37:55.948Z,52.10
2022-11-26T19:40:25.724Z,52.00
2022-11-26T19:42:55.513Z,52.30
2022-11-26T19:45:28.643Z,52.30
2022-11-26T19:47:58.463Z,52.60
2022-11-26T19:50:28.303Z,52.60
2022-11-26T19:52:58.115Z,53.30
2022-11-26T19:55:27.872Z,53.40
2022-11-26T19:57:58.296Z,53.20
2022-11-26T20:00:30.688Z,53.50
2022-11-26T20:03:00.661Z,53.70
2022-11-26T20:05:30.595Z,53.60
2022-11-26T20:08:00.404Z,53.50
2022-11-26T20:10:30.325Z,53.50
2022-11-26T20:13:00.150Z,53.50
2022-11-26T20:15:32.511Z,54.00
2022-11-26T20:18:02.291Z,54.10
2022-11-26T20:20:32.075Z,54.10
2022-11-26T20:23:01.894Z,54.20
2022-11-26T20:25:34.866Z,54.60
2022-11-26T20:28:05.385Z,55.00
2022-11-26T20:30:40.219Z,55.40
2022-11-26T20:33:10.104Z,55.20
2022-11-26T20:35:42.762Z,56.00
2022-11-26T20:38:12.836Z,56.30
2022-11-26T20:40:44.008Z,56.00
2022-11-26T20:43:14.251Z,55.80
2022-11-26T20:45:46.951Z,55.90
2022-11-26T20:48:16.821Z,55.80
2022-11-26T20:50:46.652Z,56.10
2022-11-26T20:53:16.405Z,55.70
2022-11-26T20:56:05.765Z,55.80
2022-11-26T20:58:36.695Z,55.40
2022-11-26T21:01:17.361Z,55.40
2022-11-26T21:03:48.233Z,55.20
2022-11-26T21:06:22.397Z,55.60
2022-11-26T21:08:57.273Z,55.70
2022-11-26T21:11:27.119Z,55.30
2022-11-26T21:13:56.887Z,55.50
2022-11-26T21:16:30.238Z,55.50
2022-11-26T21:19:00.528Z,55.40
2022-11-26T21:21:31.418Z,55.60
2022-11-26T21:24:04.640Z,55.80
2022-11-26T21:26:34.597Z,55.80
2022-11-26T21:29:04.742Z,55.80
2022-11-26T21:31:37.200Z,56.40
2022-11-26T21:34:09.400Z,56.50
2022-11-26T21:36:39.874Z,56.40
2022-11-26T21:39:09.649Z,56.50
2022-11-26T21:41:39.500Z,56.60
2022-11-26T21:44:09.492Z,56.50
2022-11-26T21:46:42.305Z,56.60
2022-11-26T21:49:12.308Z,56.60
2022-11-26T21:51:42.501Z,57.10
2022-11-26T21:54:12.516Z,56.50
2022-11-26T21:56:42.539Z,56.50
2022-11-26T21:59:12.623Z,56.50
2022-11-26T22:01:45.424Z,56.50
2022-11-26T22:04:17.407Z,56.50
2022-11-26T22:06:49.019Z,56.40
2022-11-26T22:09:19.876Z,56.70
2022-11-26T22:11:49.751Z,56.70
2022-11-26T22:14:19.925Z,57.00
2022-11-26T22:16:53.578Z,57.50
2022-11-26T22:19:23.629Z,57.80
2022-11-26T22:21:53.431Z,57.80
2022-11-26T22:24:23.504Z,58.00
2022-11-26T22:26:54.029Z,58.00
2022-11-26T22:29:23.994Z,58.10
2022-11-26T22:31:56.376Z,58.00
2022-11-26T22:34:27.847Z,57.90
2022-11-26T22:36:57.693Z,58.30
2022-11-26T22:39:27.491Z,58.30
2022-11-26T22:41:57.309Z,58.00
2022-11-26T22:44:27.313Z,58.00
2022-11-26T22:46:59.632Z,57.90
2022-11-26T22:49:29.551Z,57.90
2022-11-26T22:51:59.350Z,57.90
2022-11-26T22:54:29.180Z,58.20
2022-11-26T22:56:59.013Z,58.10
2022-11-26T22:59:29.156Z,58.20
2022-11-26T23:02:01.508Z,58.00
2022-11-26T23:04:31.301Z,58.30
2022-11-26T23:07:01.166Z,58.30
2022-11-26T23:09:31.623Z,58.30
2022-11-26T23:12:01.403Z,58.40
2022-11-26T23:14:31.215Z,58.50
2022-11-26T23:17:03.766Z,58.90
2022-11-26T23:19:33.793Z,58.90
2022-11-26T23:22:03.628Z,58.70
2022-11-26T23:24:33.484Z,58.80
2022-11-26T23:27:03.280Z,58.80
2022-11-26T23:29:33.161Z,58.80
2022-11-26T23:32:05.569Z,58.90
2022-11-26T23:34:35.356Z,59.30
2022-11-26T23:37:05.121Z,59.80
2022-11-26T23:39:34.982Z,60.00
2022-11-26T23:42:04.816Z,60.10
2022-11-26T23:44:34.636Z,60.10
2022-11-26T23:47:07.181Z,60.30
2022-11-26T23:49:37.142Z,60.30
2022-11-26T23:52:07.435Z,60.40
2022-11-26T23:54:37.291Z,60.40
2022-11-26T23:57:10.499Z,60.40
2022-11-26T23:59:44.482Z,60.40
